createdAt,value
2022-08-17T00:00:12.806Z,82.93
2022-08-17T00:02:59.697Z,82.72
2022-08-17T00:05:29.175Z,83.62
2022-08-17T00:07:56.944Z,83.40
2022-08-17T00:10:25.176Z,82.28
2022-08-17T00:12:52.749Z,81.64
2022-08-17T00:15:21.615Z,81.95
2022-08-17T00:17:50.689Z,81.51
2022-08-17T00:20:18.973Z,81.05
2022-08-17T00:22:50.644Z,80.49
2022-08-17T00:25:20.003Z,82.27
2022-08-17T00:27:47.740Z,82.08
2022-08-17T00:33:23.146Z,82.27
2022-08-17T00:35:34.168Z,82.40
2022-08-17T00:38:01.673Z,82.52
2022-08-17T00:40:44.563Z,83.86
2022-08-17T00:43:19.800Z,82.91
2022-08-17T00:45:47.609Z,83.62
2022-08-17T00:48:29.330Z,82.53
2022-08-17T00:51:11.777Z,82.58
2022-08-17T00:53:41.946Z,83.08
2022-08-17T00:56:11.192Z,81.88
2022-08-17T00:58:38.595Z,82.68
2022-08-17T01:01:07.870Z,82.56
2022-08-17T01:03:36.028Z,81.64
2022-08-17T01:06:04.777Z,82.38
2022-08-17T01:08:33.827Z,82.12
2022-08-17T01:11:02.525Z,83.20
2022-08-17T01:13:40.774Z,83.98
2022-08-17T01:16:22.604Z,84.27
2022-08-17T01:18:54.279Z,83.33
2022-08-17T01:21:47.672Z,82.87
2022-08-17T01:24:15.811Z,83.02
2022-08-17T01:26:43.604Z,83.75
2022-08-17T01:29:11.540Z,83.73
2022-08-17T01:31:52.815Z,83.81
2022-08-17T01:34:20.756Z,82.79
2022-08-17T01:36:49.587Z,82.80
2022-08-17T01:39:37.253Z,83.45
2022-08-17T01:42:24.759Z,83.31
2022-08-17T01:44:58.967Z,83.91
2022-08-17T01:47:26.283Z,84.60
2022-08-17T01:49:53.805Z,84.64
2022-08-17T01:52:22.026Z,84.46
2022-08-17T01:54:51.491Z,84.45
2022-08-17T01:57:18.838Z,83.72
2022-08-17T01:59:46.125Z,83.51
2022-08-17T02:02:13.335Z,83.47
2022-08-17T02:04:58.773Z,83.89
2022-08-17T02:07:27.008Z,84.79
2022-08-17T02:09:56.333Z,84.63
2022-08-17T02:12:37.802Z,85.87
2022-08-17T02:15:10.226Z,86.47
2022-08-17T02:17:37.527Z,85.39
2022-08-17T02:20:05.384Z,85.35
2022-08-17T02:22:32.746Z,85.32
2022-08-17T02:25:02.336Z,84.87
2022-08-17T02:27:29.903Z,85.72
2022-08-17T02:29:57.572Z,86.88
2022-08-17T02:32:27.940Z,86.26
2022-08-17T02:34:57.464Z,87.15
2022-08-17T02:37:25.757Z,87.85
2022-08-17T02:39:53.223Z,88.01
2022-08-17T02:42:33.834Z,88.03
2022-08-17T02:45:02.333Z,87.88
2022-08-17T02:47:29.842Z,85.97
2022-08-17T02:49:57.449Z,85.05
2022-08-17T02:52:43.291Z,84.88
2022-08-17T02:55:19.022Z,86.54
2022-08-17T02:57:46.653Z,85.96
2022-08-17T03:00:21.281Z,85.48
2022-08-17T03:02:49.339Z,85.44
2022-08-17T03:05:18.951Z,85.51
2022-08-17T03:07:46.251Z,85.81
2022-08-17T03:10:14.561Z,84.96
2022-08-17T03:12:43.303Z,84.85
2022-08-17T03:15:14.020Z,84.47
2022-08-17T03:17:41.517Z,84.39
2022-08-17T03:20:09.334Z,83.73
2022-08-17T03:22:42.907Z,83.07
2022-08-17T03:25:24.104Z,82.90
2022-08-17T03:27:51.780Z,84.11
2022-08-17T03:30:19.157Z,83.06
2022-08-17T03:32:50.597Z,81.53
2022-08-17T03:35:20.939Z,80.41
2022-08-17T03:37:48.303Z,81.03
2022-08-17T03:40:41.811Z,81.17
2022-08-17T03:43:15.469Z,80.65
2022-08-17T03:46:01.913Z,80.54
2022-08-17T03:48:47.814Z,80.39
2022-08-17T03:51:40.860Z,80.80
2022-08-17T03:54:27.677Z,80.36
2022-08-17T03:57:06.357Z,80.66
2022-08-17T03:59:34.474Z,80.59
2022-08-17T04:02:08.995Z,80.36
2022-08-17T04:04:36.831Z,79.22
2022-08-17T04:07:04.762Z,79.79
2022-08-17T04:09:32.035Z,78.69
2022-08-17T04:12:01.215Z,78.53
2022-08-17T04:14:45.995Z,79.04
2022-08-17T04:17:24.719Z,79.80
2022-08-17T04:19:52.487Z,80.05
2022-08-17T04:22:33.379Z,79.93
2022-08-17T04:25:21.607Z,79.97
2022-08-17T04:27:48.929Z,79.51
2022-08-17T04:30:16.333Z,79.49
2022-08-17T04:33:05.849Z,78.98
2022-08-17T04:35:42.923Z,79.11
2022-08-17T04:38:16.229Z,80.02
2022-08-17T04:41:02.625Z,80.08
2022-08-17T04:43:32.020Z,80.15
2022-08-17T04:46:05.692Z,79.25
2022-08-17T04:48:45.785Z,79.44
2022-08-17T04:51:16.434Z,78.93
2022-08-17T04:53:46.587Z,80.17
2022-08-17T04:56:23.233Z,80.46
2022-08-17T04:58:52.377Z,79.07
2022-08-17T05:01:23.739Z,80.08
2022-08-17T05:04:18.392Z,79.70
2022-08-17T05:06:49.632Z,79.46
2022-08-17T05:09:17.867Z,79.92
2022-08-17T05:11:46.033Z,79.67
2022-08-17T05:14:14.509Z,79.41
2022-08-17T05:16:41.766Z,79.43
2022-08-17T05:19:09.028Z,79.01
2022-08-17T05:21:36.429Z,79.57
2022-08-17T05:24:06.023Z,80.43
2022-08-17T05:26:44.905Z,80.81
2022-08-17T05:29:12.450Z,80.99
2022-08-17T05:31:39.712Z,81.68
2022-08-17T05:34:07.390Z,83.34
2022-08-17T05:36:41.592Z,82.80
2022-08-17T05:39:15.974Z,82.31
2022-08-17T05:41:46.597Z,82.10
2022-08-17T05:44:14.070Z,82.25
2022-08-17T05:46:44.080Z,82.80
2022-08-17T05:49:12.276Z,81.99
2022-08-17T05:51:39.653Z,82.71
2022-08-17T05:54:19.141Z,81.63
2022-08-17T05:57:10.948Z,82.35
2022-08-17T05:59:52.089Z,83.05
2022-08-17T06:02:47.035Z,81.66
2022-08-17T06:05:25.881Z,81.18
2022-08-17T06:08:06.890Z,80.09
2022-08-17T06:10:34.080Z,78.77
2022-08-17T06:13:14.526Z,78.77
2022-08-17T06:15:41.798Z,77.46
2022-08-17T06:18:11.607Z,76.74
2022-08-17T06:21:13.797Z,77.84
2022-08-17T06:23:45.066Z,77.64
2022-08-17T06:26:20.613Z,78.57
2022-08-17T06:28:55.571Z,78.28
2022-08-17T06:31:28.036Z,77.63
2022-08-17T06:34:00.867Z,76.18
2022-08-17T06:36:40.471Z,75.44
2022-08-17T06:39:29.631Z,74.67
2022-08-17T06:42:54.882Z,74.72
2022-08-17T06:45:18.243Z,74.38
2022-08-17T06:48:00.860Z,75.30
2022-08-17T06:50:38.271Z,76.80
2022-08-17T06:53:11.170Z,77.38
2022-08-17T06:56:12.186Z,77.01
2022-08-17T06:58:40.967Z,76.57
2022-08-17T07:01:10.426Z,76.97
2022-08-17T07:03:41.731Z,78.48
2022-08-17T07:06:18.613Z,77.78
2022-08-17T07:08:59.003Z,77.98
2022-08-17T07:11:27.510Z,77.65
2022-08-17T07:14:06.137Z,77.05
2022-08-17T07:16:47.142Z,76.37
2022-08-17T07:19:17.301Z,77.31
2022-08-17T07:22:02.662Z,77.17
2022-08-17T07:24:39.256Z,76.78
2022-08-17T07:27:12.687Z,76.05
2022-08-17T07:30:06.770Z,75.56
2022-08-17T07:32:38.165Z,75.05
2022-08-17T07:35:16.493Z,74.63
2022-08-17T07:37:50.927Z,74.99
2022-08-17T07:40:31.266Z,75.15
2022-08-17T07:43:23.790Z,75.34
2022-08-17T07:46:15.937Z,75.59
2022-08-17T07:48:46.464Z,76.16
2022-08-17T07:51:26.411Z,76.56
2022-08-17T07:54:13.175Z,76.62
2022-08-17T07:56:56.585Z,76.88
2022-08-17T07:59:35.747Z,75.79
2022-08-17T08:02:31.087Z,79.63
2022-08-17T08:05:14.975Z,78.30
2022-08-17T08:08:01.425Z,76.86
2022-08-17T08:10:36.264Z,76.34
2022-08-17T08:13:23.191Z,75.77
2022-08-17T08:15:54.595Z,74.67
2022-08-17T08:18:54.368Z,75.44
2022-08-17T08:21:46.434Z,75.62
2022-08-17T08:24:34.794Z,75.15
2022-08-17T08:27:08.136Z,76.11
2022-08-17T08:30:00.948Z,75.51
2022-08-17T08:32:50.429Z,75.68
2022-08-17T08:35:37.246Z,75.54
2022-08-17T08:38:28.264Z,75.81
2022-08-17T08:41:17.810Z,76.63
2022-08-17T08:44:19.113Z,76.52
2022-08-17T08:47:35.571Z,75.61
2022-08-17T08:50:34.114Z,76.07
2022-08-17T08:53:39.686Z,75.81
2022-08-17T08:56:12.452Z,75.75
2022-08-17T08:58:52.600Z,75.87
2022-08-17T09:01:40.233Z,74.60
2022-08-17T09:04:25.404Z,75.37
2022-08-17T09:07:24.220Z,74.98
2022-08-17T09:10:11.127Z,74.54
2022-08-17T09:12:50.560Z,74.71
2022-08-17T09:15:22.628Z,75.30
2022-08-17T09:18:14.703Z,75.69
2022-08-17T09:20:50.319Z,76.15
2022-08-17T09:23:42.355Z,76.04
2022-08-17T09:26:14.554Z,75.28
2022-08-17T09:28:45.040Z,74.84
2022-08-17T09:31:18.157Z,74.98
2022-08-17T09:33:47.965Z,74.76
2022-08-17T09:36:25.747Z,74.88
2022-08-17T09:39:00.162Z,74.58
2022-08-17T09:41:48.878Z,73.79
2022-08-17T09:44:27.290Z,73.93
2022-08-17T09:46:59.968Z,73.44
2022-08-17T09:49:27.133Z,73.55
2022-08-17T09:51:58.883Z,73.43
2022-08-17T09:54:39.268Z,74.31
2022-08-17T09:57:29.946Z,73.11
2022-08-17T10:00:15.982Z,73.14
2022-08-17T10:03:16.142Z,74.50
2022-08-17T10:05:57.158Z,75.28
2022-08-17T10:08:32.376Z,75.61
2022-08-17T10:11:33.462Z,75.23
2022-08-17T10:14:36.869Z,76.33
2022-08-17T10:17:23.040Z,75.64
2022-08-17T10:19:50.305Z,75.41
2022-08-17T10:22:53.030Z,75.32
2022-08-17T10:25:53.941Z,75.03
2022-08-17T10:28:29.386Z,74.41
2022-08-17T10:31:30.763Z,73.83
2022-08-17T10:33:54.178Z,74.53
2022-08-17T10:36:55.052Z,72.91
2022-08-17T10:39:31.336Z,73.72
2022-08-17T10:42:04.357Z,74.69
2022-08-17T10:44:42.348Z,74.83
2022-08-17T10:47:14.513Z,74.42
2022-08-17T10:49:49.714Z,73.80
2022-08-17T10:52:20.083Z,73.49
2022-08-17T10:54:50.394Z,72.98
2022-08-17T10:57:31.680Z,72.92
2022-08-17T10:59:59.657Z,73.64
2022-08-17T11:02:31.483Z,73.68
2022-08-17T11:05:16.999Z,73.94
2022-08-17T11:08:05.330Z,72.76
2022-08-17T11:10:58.340Z,71.55
2022-08-17T11:13:31.412Z,71.34
2022-08-17T11:16:27.695Z,71.99
2022-08-17T11:19:26.396Z,70.63
2022-08-17T11:22:23.010Z,72.88
2022-08-17T11:24:52.677Z,73.85
2022-08-17T11:27:27.081Z,72.71
2022-08-17T11:30:20.655Z,71.56
2022-08-17T11:32:55.815Z,70.55
2022-08-17T11:35:24.387Z,69.52
2022-08-17T11:38:05.024Z,70.00
2022-08-17T11:40:46.416Z,68.81
2022-08-17T11:43:21.358Z,68.78
2022-08-17T11:45:56.081Z,67.60
2022-08-17T11:49:01.473Z,67.64
2022-08-17T11:51:58.369Z,68.63
2022-08-17T11:54:36.598Z,66.59
2022-08-17T11:57:25.967Z,65.77
2022-08-17T11:59:55.342Z,65.84
2022-08-17T12:02:31.702Z,66.16
2022-08-17T12:05:02.597Z,66.59
2022-08-17T12:07:32.665Z,67.38
2022-08-17T12:10:00.552Z,66.85
2022-08-17T12:12:33.019Z,66.35
2022-08-17T12:15:10.930Z,66.72
2022-08-17T12:17:52.057Z,65.99
2022-08-17T12:20:42.314Z,64.85
2022-08-17T12:23:11.063Z,65.45
2022-08-17T12:26:10.195Z,65.13
2022-08-17T12:28:39.279Z,63.00
2022-08-17T12:31:11.594Z,63.44
2022-08-17T12:33:44.138Z,63.28
2022-08-17T12:36:15.125Z,61.95
2022-08-17T12:38:51.229Z,62.58
2022-08-17T12:41:30.916Z,63.06
2022-08-17T12:44:03.872Z,62.39
2022-08-17T12:46:46.721Z,62.78
2022-08-17T12:49:15.265Z,61.22
2022-08-17T12:51:46.841Z,61.01
2022-08-17T12:54:28.529Z,61.13
2022-08-17T12:56:56.112Z,61.88
2022-08-17T12:59:30.451Z,62.01
2022-08-17T13:01:57.984Z,62.39
2022-08-17T13:04:26.587Z,61.14
2022-08-17T13:06:59.925Z,63.03
2022-08-17T13:09:36.029Z,63.82
2022-08-17T13:12:08.485Z,61.44
2022-08-17T13:14:36.350Z,63.30
2022-08-17T13:17:08.552Z,61.73
2022-08-17T13:19:48.507Z,61.52
2022-08-17T13:22:15.837Z,60.49
2022-08-17T13:24:55.060Z,60.33
2022-08-17T13:27:24.551Z,60.31
2022-08-17T13:29:58.004Z,59.86
2022-08-17T13:32:36.100Z,59.61
2022-08-17T13:35:32.386Z,57.96
2022-08-17T13:38:09.907Z,58.03
2022-08-17T13:40:41.652Z,56.50
2022-08-17T13:43:10.307Z,56.52
2022-08-17T13:45:45.469Z,55.87
2022-08-17T13:48:32.717Z,56.42
2022-08-17T13:51:00.007Z,56.70
2022-08-17T13:53:50.589Z,56.21
2022-08-17T13:56:38.746Z,55.58
2022-08-17T13:59:16.947Z,56.05
2022-08-17T14:02:05.724Z,55.72
2022-08-17T14:04:33.956Z,54.92
2022-08-17T14:07:11.500Z,53.42
2022-08-17T14:09:47.953Z,52.71
2022-08-17T14:12:17.682Z,52.78
2022-08-17T14:14:45.267Z,52.77
2022-08-17T14:17:12.798Z,50.13
2022-08-17T14:19:40.085Z,50.45
2022-08-17T14:22:11.597Z,51.90
2022-08-17T14:24:45.013Z,51.77
2022-08-17T14:27:12.549Z,50.25
2022-08-17T14:29:41.227Z,49.12
2022-08-17T14:32:17.984Z,47.16
2022-08-17T14:34:46.161Z,47.96
2022-08-17T14:37:13.529Z,48.20
2022-08-17T14:39:41.007Z,49.87
2022-08-17T14:42:09.432Z,51.25
2022-08-17T14:44:38.241Z,50.93
2022-08-17T14:47:07.301Z,51.55
2022-08-17T14:49:34.508Z,50.77
2022-08-17T14:52:02.167Z,50.99
2022-08-17T14:54:34.069Z,51.37
2022-08-17T14:57:25.154Z,51.67
2022-08-17T14:59:54.942Z,52.86
2022-08-17T15:02:30.074Z,53.70
2022-08-17T15:05:00.092Z,53.27
2022-08-17T15:07:30.743Z,53.14
2022-08-17T15:10:02.083Z,54.50
2022-08-17T15:12:33.775Z,56.00
2022-08-17T15:15:04.813Z,55.97
2022-08-17T15:17:44.429Z,55.94
2022-08-17T15:20:19.271Z,55.30
2022-08-17T15:22:49.842Z,56.43
2022-08-17T15:25:19.184Z,55.32
2022-08-17T15:27:47.422Z,56.09
2022-08-17T15:30:15.752Z,55.63
2022-08-17T15:32:46.875Z,55.74
2022-08-17T15:35:29.447Z,55.95
2022-08-17T15:38:06.159Z,54.38
2022-08-17T15:40:37.846Z,53.42
2022-08-17T15:43:11.465Z,53.14
2022-08-17T15:45:39.723Z,54.54
2022-08-17T15:48:07.385Z,53.62
2022-08-17T15:50:35.430Z,53.68
2022-08-17T15:53:04.762Z,53.43
2022-08-17T15:55:33.398Z,53.31
2022-08-17T15:58:01.113Z,51.35
2022-08-17T16:00:29.332Z,50.10
2022-08-17T16:03:46.107Z,50.69
2022-08-17T16:05:47.277Z,50.87
2022-08-17T16:08:20.110Z,48.92
2022-08-17T16:10:49.563Z,49.03
2022-08-17T16:13:18.282Z,48.57
2022-08-17T16:15:54.816Z,47.19
2022-08-17T16:18:27.404Z,47.37
2022-08-17T16:20:55.030Z,48.91
2022-08-17T16:23:22.420Z,48.55
2022-08-17T16:25:53.945Z,49.13
2022-08-17T16:28:25.734Z,48.06
2022-08-17T16:31:07.924Z,47.97
2022-08-17T16:33:37.446Z,49.01
2022-08-17T16:36:07.215Z,49.38
2022-08-17T16:38:35.825Z,48.61
2022-08-17T16:41:04.816Z,48.03
2022-08-17T16:43:34.022Z,46.62
2022-08-17T16:46:01.571Z,47.63
2022-08-17T16:48:29.736Z,47.14
2022-08-17T16:51:04.220Z,47.44
2022-08-17T16:53:31.904Z,46.68
2022-08-17T16:55:59.109Z,47.72
2022-08-17T16:58:26.504Z,49.24
2022-08-17T17:00:54.365Z,47.55
2022-08-17T17:03:25.278Z,49.62
2022-08-17T17:06:32.381Z,50.29
2022-08-17T17:09:03.710Z,51.01
2022-08-17T17:11:47.186Z,51.60
2022-08-17T17:14:18.216Z,52.61
2022-08-17T17:16:53.025Z,53.81
2022-08-17T17:19:35.325Z,53.43
2022-08-17T17:22:14.080Z,55.80
2022-08-17T17:25:03.212Z,58.84
2022-08-17T17:27:38.348Z,60.89
2022-08-17T17:30:15.735Z,62.12
2022-08-17T17:32:52.749Z,64.63
2022-08-17T17:35:25.243Z,65.04
2022-08-17T17:37:53.287Z,65.79
2022-08-17T17:40:37.639Z,66.48
2022-08-17T17:43:36.887Z,66.01
2022-08-17T17:46:27.062Z,65.18
2022-08-17T17:48:55.324Z,66.03
2022-08-17T17:52:15.630Z,65.90
2022-08-17T17:54:58.899Z,67.67
2022-08-17T17:58:04.305Z,67.08
2022-08-17T18:00:44.343Z,67.47
2022-08-17T18:03:23.114Z,67.29
2022-08-17T18:06:00.661Z,67.19
2022-08-17T18:08:34.752Z,66.20
2022-08-17T18:11:11.448Z,66.15
2022-08-17T18:14:14.431Z,65.18
2022-08-17T18:16:42.964Z,65.24
2022-08-17T18:19:15.494Z,64.07
2022-08-17T18:21:46.456Z,64.20
2022-08-17T18:24:13.903Z,67.64
2022-08-17T18:26:44.680Z,68.78
2022-08-17T18:29:26.265Z,68.09
2022-08-17T18:32:15.231Z,68.09
2022-08-17T18:34:47.701Z,68.36
2022-08-17T18:37:34.329Z,68.40
2022-08-17T18:40:32.435Z,68.88
2022-08-17T18:43:24.569Z,69.11
2022-08-17T18:45:55.157Z,69.01
2022-08-17T18:48:24.897Z,67.76
2022-08-17T18:50:54.457Z,67.47
2022-08-17T18:53:33.139Z,68.13
2022-08-17T18:56:21.955Z,69.18
2022-08-17T18:59:12.448Z,69.48
2022-08-17T19:02:03.205Z,70.15
2022-08-17T19:04:41.697Z,70.69
2022-08-17T19:07:29.116Z,70.37
2022-08-17T19:10:13.838Z,69.85
2022-08-17T19:12:49.396Z,69.91
2022-08-17T19:15:22.888Z,69.65
2022-08-17T19:18:00.366Z,68.20
2022-08-17T19:20:34.928Z,68.07
2022-08-17T19:23:10.972Z,67.25
2022-08-17T19:25:43.338Z,68.36
2022-08-17T19:28:26.008Z,67.31
2022-08-17T19:31:07.705Z,65.60
2022-08-17T19:33:35.034Z,64.78
2022-08-17T19:36:24.194Z,63.98
2022-08-17T19:39:10.433Z,64.09
2022-08-17T19:42:03.816Z,64.79
2022-08-17T19:44:56.666Z,67.03
2022-08-17T19:47:57.057Z,68.81
2022-08-17T19:50:38.393Z,69.46
2022-08-17T19:54:01.645Z,70.14
2022-08-17T19:56:31.682Z,69.95
2022-08-17T19:59:04.704Z,69.94
2022-08-17T20:01:39.945Z,70.05
2022-08-17T20:04:32.630Z,70.52
2022-08-17T20:07:04.633Z,70.35
2022-08-17T20:09:37.790Z,69.73
2022-08-17T20:12:09.855Z,70.59
2022-08-17T20:14:53.620Z,70.93
2022-08-17T20:17:40.663Z,70.96
2022-08-17T20:20:46.771Z,71.59
2022-08-17T20:23:23.384Z,71.01
2022-08-17T20:26:05.176Z,70.24
2022-08-17T20:28:38.911Z,70.28
2022-08-17T20:31:41.817Z,70.32
2022-08-17T20:34:34.899Z,71.00
2022-08-17T20:37:10.517Z,71.46
2022-08-17T20:39:45.088Z,72.20
2022-08-17T20:42:15.388Z,71.83
2022-08-17T20:44:43.193Z,71.74
2022-08-17T20:47:17.926Z,72.00
2022-08-17T20:49:47.967Z,72.24
2022-08-17T20:52:18.621Z,72.10
2022-08-17T20:54:54.687Z,73.47
2022-08-17T20:57:37.462Z,74.33
2022-08-17T21:00:39.742Z,73.62
2022-08-17T21:03:26.638Z,74.27
2022-08-17T21:06:17.622Z,73.86
2022-08-17T21:08:53.926Z,72.62
2022-08-17T21:11:57.211Z,72.88
2022-08-17T21:14:40.241Z,72.94
2022-08-17T21:17:56.253Z,71.87
2022-08-17T21:20:27.713Z,71.90
2022-08-17T21:23:12.238Z,72.76
2022-08-17T21:26:04.805Z,72.70
2022-08-17T21:28:59.973Z,74.07
2022-08-17T21:31:32.065Z,73.37
2022-08-17T21:34:25.416Z,73.50
2022-08-17T21:36:52.957Z,73.50
2022-08-17T21:39:30.507Z,73.66
2022-08-17T21:42:00.519Z,74.16
2022-08-17T21:44:34.915Z,74.13
2022-08-17T21:47:32.267Z,74.60
2022-08-17T21:50:23.580Z,74.24
2022-08-17T21:52:54.071Z,73.47
2022-08-17T21:55:30.189Z,74.06
2022-08-17T21:58:13.871Z,73.77
2022-08-17T22:00:44.457Z,72.91
2022-08-17T22:03:24.726Z,74.43
2022-08-17T22:05:52.044Z,76.15
2022-08-17T22:08:24.024Z,76.96
2022-08-17T22:11:00.608Z,78.50
2022-08-17T22:13:29.580Z,78.58
2022-08-17T22:16:15.390Z,78.25
2022-08-17T22:18:57.899Z,78.53
2022-08-17T22:21:25.490Z,78.37
2022-08-17T22:24:05.331Z,79.28
2022-08-17T22:27:00.163Z,79.04
2022-08-17T22:29:57.030Z,80.09
2022-08-17T22:32:37.281Z,79.43
2022-08-17T22:35:29.054Z,79.12
2022-08-17T22:37:57.496Z,79.22
2022-08-17T22:40:32.959Z,78.92
2022-08-17T22:43:03.493Z,78.25
2022-08-17T22:45:31.198Z,77.31
2022-08-17T22:48:00.294Z,77.90
2022-08-17T22:50:30.320Z,78.49
2022-08-17T22:53:19.203Z,78.32
2022-08-17T22:56:15.299Z,79.71
2022-08-17T22:59:15.823Z,80.02
2022-08-17T23:01:45.400Z,79.72
2022-08-17T23:04:31.826Z,78.68
2022-08-17T23:06:59.071Z,78.59
2022-08-17T23:09:26.419Z,77.76
2022-08-17T23:11:58.992Z,78.92
2022-08-17T23:14:31.732Z,79.48
2022-08-17T23:17:02.010Z,78.70
2022-08-17T23:19:31.840Z,78.71
2022-08-17T23:21:59.848Z,80.07
2022-08-17T23:24:33.074Z,79.89
2022-08-17T23:27:00.357Z,79.52
2022-08-17T23:29:29.384Z,79.58
2022-08-17T23:31:59.706Z,79.62
2022-08-17T23:34:28.029Z,80.16
2022-08-17T23:36:55.544Z,79.98
2022-08-17T23:39:27.272Z,79.71
2022-08-17T23:41:57.891Z,79.88
2022-08-17T23:44:25.848Z,80.54
2022-08-17T23:46:53.605Z,80.16
2022-08-17T23:49:20.886Z,79.28
2022-08-17T23:51:48.570Z,78.52
2022-08-17T23:54:35.629Z,78.98
2022-08-17T23:57:04.769Z,80.22
2022-08-17T23:59:33.890Z,79.70
